sensor_id;sensor_type;location;lat;lon;timestamp;P1;durP1;ratioP1;P2;durP2;ratioP2
677;SDS011;321;48.814;9.132;2022-09-16T00:00:09;2.57;;;1.90;;
677;SDS011;321;48.814;9.132;2022-09-16T00:02:35;2.83;;;2.13;;
677;SDS011;321;48.814;9.132;2022-09-16T00:05:01;2.63;;;1.80;;
677;SDS011;321;48.814;9.132;2022-09-16T00:07:28;2.80;;;1.77;;
677;SDS011;321;48.814;9.132;2022-09-16T00:09:54;1.90;;;1.60;;
677;SDS011;321;48.814;9.132;2022-09-16T00:12:20;1.70;;;1.40;;
677;SDS011;321;48.814;9.132;2022-09-16T00:14:45;4.30;;;2.70;;
677;SDS011;321;48.814;9.132;2022-09-16T00:17:11;3.17;;;1.93;;
677;SDS011;321;48.814;9.132;2022-09-16T00:19:37;3.60;;;2.80;;
677;SDS011;321;48.814;9.132;2022-09-16T00:22:02;3.67;;;2.20;;
677;SDS011;321;48.814;9.132;2022-09-16T00:24:28;2.07;;;1.77;;
677;SDS011;321;48.814;9.132;2022-09-16T00:26:54;3.80;;;2.00;;
677;SDS011;321;48.814;9.132;2022-09-16T00:29:19;5.10;;;2.50;;
677;SDS011;321;48.814;9.132;2022-09-16T00:31:45;2.50;;;1.87;;
677;SDS011;321;48.814;9.132;2022-09-16T00:34:10;2.40;;;2.03;;
677;SDS011;321;48.814;9.132;2022-09-16T00:36:36;2.30;;;1.60;;
677;SDS011;321;48.814;9.132;2022-09-16T00:39:01;3.50;;;2.07;;
677;SDS011;321;48.814;9.132;2022-09-16T00:41:28;2.77;;;1.97;;
677;SDS011;321;48.814;9.132;2022-09-16T00:43:59;3.90;;;2.63;;
677;SDS011;321;48.814;9.132;2022-09-16T00:46:48;2.47;;;2.27;;
677;SDS011;321;48.814;9.132;2022-09-16T00:49:20;2.87;;;2.67;;
677;SDS011;321;48.814;9.132;2022-09-16T00:51:50;2.23;;;1.70;;
677;SDS011;321;48.814;9.132;2022-09-16T00:54:20;5.03;;;2.50;;
677;SDS011;321;48.814;9.132;2022-09-16T00:56:47;3.20;;;2.20;;
677;SDS011;321;48.814;9.132;2022-09-16T01:02:06;3.30;;;3.00;;
677;SDS011;321;48.814;9.132;2022-09-16T01:04:36;3.20;;;2.60;;
677;SDS011;321;48.814;9.132;2022-09-16T01:07:10;2.10;;;1.77;;
677;SDS011;321;48.814;9.132;2022-09-16T01:09:36;3.20;;;2.37;;
677;SDS011;321;48.814;9.132;2022-09-16T01:12:03;2.53;;;2.33;;
677;SDS011;321;48.814;9.132;2022-09-16T01:14:29;2.70;;;2.00;;
677;SDS011;321;48.814;9.132;2022-09-16T01:36:44;2.33;;;2.13;;
677;SDS011;321;48.814;9.132;2022-09-16T01:42:18;3.90;;;2.33;;
677;SDS011;321;48.814;9.132;2022-09-16T01:44:50;2.77;;;2.17;;
677;SDS011;321;48.814;9.132;2022-09-16T01:47:38;2.30;;;2.10;;
677;SDS011;321;48.814;9.132;2022-09-16T01:55:44;3.00;;;2.70;;
677;SDS011;321;48.814;9.132;2022-09-16T01:58:14;3.47;;;2.30;;
677;SDS011;321;48.814;9.132;2022-09-16T02:00:41;3.60;;;2.97;;
677;SDS011;321;48.814;9.132;2022-09-16T02:03:10;2.07;;;1.87;;
677;SDS011;321;48.814;9.132;2022-09-16T02:05:46;2.07;;;1.87;;
677;SDS011;321;48.814;9.132;2022-09-16T02:08:25;2.40;;;2.20;;
677;SDS011;321;48.814;9.132;2022-09-16T02:10:58;2.10;;;1.73;;
677;SDS011;321;48.814;9.132;2022-09-16T02:13:33;3.30;;;2.33;;
677;SDS011;321;48.814;9.132;2022-09-16T02:16:12;2.80;;;2.60;;
677;SDS011;321;48.814;9.132;2022-09-16T02:18:48;7.23;;;2.13;;
677;SDS011;321;48.814;9.132;2022-09-16T02:21:17;5.53;;;2.53;;
677;SDS011;321;48.814;9.132;2022-09-16T02:23:47;2.27;;;2.07;;
677;SDS011;321;48.814;9.132;2022-09-16T02:26:17;2.30;;;1.90;;
677;SDS011;321;48.814;9.132;2022-09-16T02:28:48;1.77;;;1.67;;
677;SDS011;321;48.814;9.132;2022-09-16T02:31:16;2.33;;;2.13;;
677;SDS011;321;48.814;9.132;2022-09-16T02:34:11;2.17;;;1.97;;
677;SDS011;321;48.814;9.132;2022-09-16T02:36:39;2.27;;;2.03;;
677;SDS011;321;48.814;9.132;2022-09-16T02:39:10;3.83;;;2.60;;
677;SDS011;321;48.814;9.132;2022-09-16T02:41:41;2.90;;;2.60;;
677;SDS011;321;48.814;9.132;2022-09-16T02:44:07;3.90;;;2.63;;
677;SDS011;321;48.814;9.132;2022-09-16T02:46:53;5.20;;;2.83;;
677;SDS011;321;48.814;9.132;2022-09-16T02:49:35;2.60;;;2.03;;
677;SDS011;321;48.814;9.132;2022-09-16T02:52:07;2.37;;;2.17;;
677;SDS011;321;48.814;9.132;2022-09-16T02:54:47;2.43;;;2.10;;
677;SDS011;321;48.814;9.132;2022-09-16T02:57:20;3.27;;;2.30;;
677;SDS011;321;48.814;9.132;2022-09-16T02:59:46;2.20;;;2.00;;
677;SDS011;321;48.814;9.132;2022-09-16T03:02:13;2.43;;;2.23;;
677;SDS011;321;48.814;9.132;2022-09-16T03:04:38;2.10;;;1.70;;
677;SDS011;321;48.814;9.132;2022-09-16T03:07:04;2.57;;;1.70;;
677;SDS011;321;48.814;9.132;2022-09-16T03:09:33;1.70;;;1.60;;
677;SDS011;321;48.814;9.132;2022-09-16T03:17:33;2.30;;;1.97;;
677;SDS011;321;48.814;9.132;2022-09-16T03:25:43;1.70;;;1.60;;
677;SDS011;321;48.814;9.132;2022-09-16T03:30:44;2.20;;;2.00;;
677;SDS011;321;48.814;9.132;2022-09-16T03:36:02;2.30;;;2.10;;
677;SDS011;321;48.814;9.132;2022-09-16T03:38:32;1.87;;;1.57;;
677;SDS011;321;48.814;9.132;2022-09-16T03:41:01;2.40;;;2.03;;
677;SDS011;321;48.814;9.132;2022-09-16T03:43:28;1.73;;;1.53;;
677;SDS011;321;48.814;9.132;2022-09-16T03:45:54;2.30;;;1.87;;
677;SDS011;321;48.814;9.132;2022-09-16T03:48:19;3.57;;;1.97;;
677;SDS011;321;48.814;9.132;2022-09-16T03:50:45;4.17;;;2.23;;
677;SDS011;321;48.814;9.132;2022-09-16T03:53:10;2.27;;;1.67;;
677;SDS011;321;48.814;9.132;2022-09-16T03:55:36;2.70;;;2.30;;
677;SDS011;321;48.814;9.132;2022-09-16T03:58:02;4.10;;;1.77;;
677;SDS011;321;48.814;9.132;2022-09-16T04:00:28;1.90;;;1.60;;
677;SDS011;321;48.814;9.132;2022-09-16T04:02:54;2.10;;;1.90;;
677;SDS011;321;48.814;9.132;2022-09-16T04:05:19;1.87;;;1.67;;
677;SDS011;321;48.814;9.132;2022-09-16T04:07:47;2.03;;;1.87;;
677;SDS011;321;48.814;9.132;2022-09-16T04:10:13;2.50;;;1.53;;
677;SDS011;321;48.814;9.132;2022-09-16T04:12:39;4.43;;;1.67;;
677;SDS011;321;48.814;9.132;2022-09-16T04:15:05;2.10;;;1.53;;
677;SDS011;321;48.814;9.132;2022-09-16T04:17:31;2.03;;;1.33;;
677;SDS011;321;48.814;9.132;2022-09-16T04:19:57;4.43;;;2.33;;
677;SDS011;321;48.814;9.132;2022-09-16T04:22:23;2.63;;;1.73;;
677;SDS011;321;48.814;9.132;2022-09-16T04:24:48;1.70;;;1.40;;
677;SDS011;321;48.814;9.132;2022-09-16T04:27:14;2.03;;;1.83;;
677;SDS011;321;48.814;9.132;2022-09-16T04:29:39;3.60;;;2.57;;
677;SDS011;321;48.814;9.132;2022-09-16T04:32:05;1.40;;;1.30;;
677;SDS011;321;48.814;9.132;2022-09-16T04:34:30;1.83;;;1.20;;
677;SDS011;321;48.814;9.132;2022-09-16T04:36:57;2.23;;;1.30;;
677;SDS011;321;48.814;9.132;2022-09-16T04:39:22;2.20;;;1.70;;
677;SDS011;321;48.814;9.132;2022-09-16T04:41:48;2.77;;;2.17;;
677;SDS011;321;48.814;9.132;2022-09-16T04:44:14;2.37;;;1.43;;
677;SDS011;321;48.814;9.132;2022-09-16T04:46:39;4.13;;;2.00;;
677;SDS011;321;48.814;9.132;2022-09-16T04:49:05;1.77;;;1.20;;
677;SDS011;321;48.814;9.132;2022-09-16T04:51:31;2.03;;;1.57;;
677;SDS011;321;48.814;9.132;2022-09-16T04:53:57;2.03;;;1.57;;
677;SDS011;321;48.814;9.132;2022-09-16T04:56:24;2.77;;;1.87;;
677;SDS011;321;48.814;9.132;2022-09-16T04:58:53;1.90;;;1.70;;
677;SDS011;321;48.814;9.132;2022-09-16T05:01:25;2.87;;;1.80;;
677;SDS011;321;48.814;9.132;2022-09-16T05:03:53;5.73;;;2.10;;
677;SDS011;321;48.814;9.132;2022-09-16T05:06:22;2.10;;;1.37;;
677;SDS011;321;48.814;9.132;2022-09-16T05:08:50;5.97;;;2.10;;
677;SDS011;321;48.814;9.132;2022-09-16T05:11:18;2.10;;;1.90;;
677;SDS011;321;48.814;9.132;2022-09-16T05:13:48;2.30;;;1.53;;
677;SDS011;321;48.814;9.132;2022-09-16T05:16:15;2.23;;;2.03;;
677;SDS011;321;48.814;9.132;2022-09-16T05:18:44;1.27;;;1.07;;
677;SDS011;321;48.814;9.132;2022-09-16T05:21:14;3.10;;;1.50;;
677;SDS011;321;48.814;9.132;2022-09-16T05:23:42;2.05;;;1.70;;
677;SDS011;321;48.814;9.132;2022-09-16T05:26:10;2.20;;;1.63;;
677;SDS011;321;48.814;9.132;2022-09-16T05:28:43;3.20;;;2.00;;
677;SDS011;321;48.814;9.132;2022-09-16T05:31:13;1.97;;;1.70;;
677;SDS011;321;48.814;9.132;2022-09-16T05:33:39;3.23;;;2.03;;
677;SDS011;321;48.814;9.132;2022-09-16T05:36:08;1.73;;;1.50;;
677;SDS011;321;48.814;9.132;2022-09-16T05:38:35;6.00;;;2.77;;
677;SDS011;321;48.814;9.132;2022-09-16T05:41:01;1.50;;;1.30;;
677;SDS011;321;48.814;9.132;2022-09-16T05:43:28;6.13;;;2.33;;
677;SDS011;321;48.814;9.132;2022-09-16T05:45:54;2.07;;;1.87;;
677;SDS011;321;48.814;9.132;2022-09-16T05:48:19;1.50;;;1.00;;
677;SDS011;321;48.814;9.132;2022-09-16T05:50:50;2.40;;;2.20;;
677;SDS011;321;48.814;9.132;2022-09-16T05:53:16;13.97;;;2.87;;
677;SDS011;321;48.814;9.132;2022-09-16T05:55:42;3.03;;;1.80;;
677;SDS011;321;48.814;9.132;2022-09-16T05:58:17;3.50;;;2.00;;
677;SDS011;321;48.814;9.132;2022-09-16T06:00:43;2.13;;;1.80;;
677;SDS011;321;48.814;9.132;2022-09-16T06:03:10;2.43;;;2.10;;
677;SDS011;321;48.814;9.132;2022-09-16T06:05:35;1.47;;;1.20;;
677;SDS011;321;48.814;9.132;2022-09-16T06:08:01;1.93;;;1.50;;
677;SDS011;321;48.814;9.132;2022-09-16T06:10:27;4.37;;;1.70;;
677;SDS011;321;48.814;9.132;2022-09-16T06:12:52;2.63;;;2.07;;
677;SDS011;321;48.814;9.132;2022-09-16T06:15:18;2.20;;;1.70;;
677;SDS011;321;48.814;9.132;2022-09-16T06:17:43;2.90;;;2.50;;
677;SDS011;321;48.814;9.132;2022-09-16T06:20:11;3.43;;;2.17;;
677;SDS011;321;48.814;9.132;2022-09-16T06:22:38;2.57;;;2.37;;
677;SDS011;321;48.814;9.132;2022-09-16T06:25:04;2.40;;;2.10;;
677;SDS011;321;48.814;9.132;2022-09-16T06:27:31;2.10;;;1.90;;
677;SDS011;321;48.814;9.132;2022-09-16T06:29:57;2.50;;;2.20;;
677;SDS011;321;48.814;9.132;2022-09-16T06:32:23;2.60;;;2.03;;
677;SDS011;321;48.814;9.132;2022-09-16T06:34:48;2.60;;;1.97;;
677;SDS011;321;48.814;9.132;2022-09-16T06:37:16;2.20;;;1.90;;
677;SDS011;321;48.814;9.132;2022-09-16T06:39:41;2.43;;;1.97;;
677;SDS011;321;48.814;9.132;2022-09-16T06:42:07;2.07;;;1.83;;
677;SDS011;321;48.814;9.132;2022-09-16T06:44:33;1.60;;;1.50;;
677;SDS011;321;48.814;9.132;2022-09-16T06:46:58;2.33;;;1.70;;
677;SDS011;321;48.814;9.132;2022-09-16T06:49:24;2.33;;;1.87;;
677;SDS011;321;48.814;9.132;2022-09-16T06:51:50;1.67;;;1.33;;
677;SDS011;321;48.814;9.132;2022-09-16T06:54:15;1.63;;;1.50;;
677;SDS011;321;48.814;9.132;2022-09-16T06:56:41;2.10;;;1.80;;
677;SDS011;321;48.814;9.132;2022-09-16T06:59:08;2.30;;;1.57;;
677;SDS011;321;48.814;9.132;2022-09-16T07:01:34;2.70;;;1.60;;
677;SDS011;321;48.814;9.132;2022-09-16T07:04:01;6.23;;;2.07;;
677;SDS011;321;48.814;9.132;2022-09-16T07:06:30;4.57;;;2.20;;
677;SDS011;321;48.814;9.132;2022-09-16T07:08:56;2.03;;;1.57;;
677;SDS011;321;48.814;9.132;2022-09-16T07:11:22;1.70;;;1.60;;
677;SDS011;321;48.814;9.132;2022-09-16T07:13:48;1.80;;;1.50;;
677;SDS011;321;48.814;9.132;2022-09-16T07:16:16;2.40;;;1.90;;
677;SDS011;321;48.814;9.132;2022-09-16T07:18:43;2.27;;;1.50;;
677;SDS011;321;48.814;9.132;2022-09-16T07:21:13;3.00;;;2.23;;
677;SDS011;321;48.814;9.132;2022-09-16T07:23:43;2.10;;;1.77;;
677;SDS011;321;48.814;9.132;2022-09-16T07:26:12;1.77;;;1.50;;
677;SDS011;321;48.814;9.132;2022-09-16T07:28:45;2.23;;;1.50;;
677;SDS011;321;48.814;9.132;2022-09-16T07:31:14;1.60;;;1.33;;
677;SDS011;321;48.814;9.132;2022-09-16T07:33:42;2.23;;;1.63;;
677;SDS011;321;48.814;9.132;2022-09-16T07:36:10;1.60;;;1.10;;
677;SDS011;321;48.814;9.132;2022-09-16T07:38:37;5.63;;;2.77;;
677;SDS011;321;48.814;9.132;2022-09-16T07:41:04;2.70;;;2.00;;
677;SDS011;321;48.814;9.132;2022-09-16T07:43:29;3.30;;;2.10;;
677;SDS011;321;48.814;9.132;2022-09-16T07:45:55;2.23;;;1.80;;
677;SDS011;321;48.814;9.132;2022-09-16T07:48:22;1.83;;;1.37;;
677;SDS011;321;48.814;9.132;2022-09-16T07:50:57;4.00;;;2.20;;
677;SDS011;321;48.814;9.132;2022-09-16T07:53:29;3.60;;;2.20;;
677;SDS011;321;48.814;9.132;2022-09-16T07:55:56;4.73;;;2.60;;
677;SDS011;321;48.814;9.132;2022-09-16T07:58:53;2.90;;;1.90;;
677;SDS011;321;48.814;9.132;2022-09-16T08:01:19;4.10;;;2.50;;
677;SDS011;321;48.814;9.132;2022-09-16T08:03:45;1.83;;;1.60;;
677;SDS011;321;48.814;9.132;2022-09-16T08:06:12;3.37;;;3.07;;
677;SDS011;321;48.814;9.132;2022-09-16T08:08:39;2.77;;;2.03;;
677;SDS011;321;48.814;9.132;2022-09-16T08:11:05;2.30;;;1.80;;
677;SDS011;321;48.814;9.132;2022-09-16T08:13:33;2.47;;;2.27;;
677;SDS011;321;48.814;9.132;2022-09-16T08:16:01;4.80;;;2.80;;
677;SDS011;321;48.814;9.132;2022-09-16T08:18:28;4.83;;;2.57;;
677;SDS011;321;48.814;9.132;2022-09-16T08:20:54;1.97;;;1.77;;
677;SDS011;321;48.814;9.132;2022-09-16T08:23:20;2.50;;;2.30;;
677;SDS011;321;48.814;9.132;2022-09-16T08:25:45;1.70;;;1.50;;
677;SDS011;321;48.814;9.132;2022-09-16T08:28:12;1.87;;;1.67;;
677;SDS011;321;48.814;9.132;2022-09-16T08:30:38;2.10;;;1.90;;
677;SDS011;321;48.814;9.132;2022-09-16T08:33:05;2.43;;;2.20;;
677;SDS011;321;48.814;9.132;2022-09-16T08:35:30;1.70;;;1.60;;
677;SDS011;321;48.814;9.132;2022-09-16T08:37:56;2.87;;;2.47;;
677;SDS011;321;48.814;9.132;2022-09-16T08:40:22;1.47;;;1.37;;
677;SDS011;321;48.814;9.132;2022-09-16T08:47:58;1.93;;;1.73;;
677;SDS011;321;48.814;9.132;2022-09-16T08:50:43;6.63;;;1.83;;
677;SDS011;321;48.814;9.132;2022-09-16T08:53:14;2.10;;;1.90;;
677;SDS011;321;48.814;9.132;2022-09-16T08:55:46;2.30;;;2.10;;
677;SDS011;321;48.814;9.132;2022-09-16T08:58:19;2.77;;;2.57;;
677;SDS011;321;48.814;9.132;2022-09-16T09:00:56;2.23;;;1.57;;
677;SDS011;321;48.814;9.132;2022-09-16T09:06:05;1.90;;;1.67;;
677;SDS011;321;48.814;9.132;2022-09-16T09:17:38;2.50;;;2.00;;
677;SDS011;321;48.814;9.132;2022-09-16T09:20:04;3.10;;;2.13;;
677;SDS011;321;48.814;9.132;2022-09-16T09:31:02;1.57;;;1.40;;
677;SDS011;321;48.814;9.132;2022-09-16T09:33:51;4.60;;;2.70;;
677;SDS011;321;48.814;9.132;2022-09-16T09:39:24;2.00;;;1.47;;
677;SDS011;321;48.814;9.132;2022-09-16T09:47:21;2.33;;;1.50;;
677;SDS011;321;48.814;9.132;2022-09-16T09:49:54;2.07;;;1.87;;
677;SDS011;321;48.814;9.132;2022-09-16T09:52:27;2.57;;;1.97;;
677;SDS011;321;48.814;9.132;2022-09-16T09:54:55;1.60;;;1.30;;
677;SDS011;321;48.814;9.132;2022-09-16T09:57:35;2.30;;;1.60;;
677;SDS011;321;48.814;9.132;2022-09-16T10:00:10;1.70;;;1.60;;
677;SDS011;321;48.814;9.132;2022-09-16T10:02:40;3.20;;;1.60;;
677;SDS011;321;48.814;9.132;2022-09-16T10:05:21;1.63;;;1.30;;
677;SDS011;321;48.814;9.132;2022-09-16T10:07:48;2.07;;;1.77;;
677;SDS011;321;48.814;9.132;2022-09-16T10:10:19;2.50;;;1.30;;
677;SDS011;321;48.814;9.132;2022-09-16T10:12:46;4.63;;;1.43;;
677;SDS011;321;48.814;9.132;2022-09-16T10:15:23;1.73;;;1.47;;
677;SDS011;321;48.814;9.132;2022-09-16T10:17:52;3.33;;;1.60;;
677;SDS011;321;48.814;9.132;2022-09-16T10:20:30;2.17;;;1.33;;
677;SDS011;321;48.814;9.132;2022-09-16T10:23:00;1.43;;;1.20;;
677;SDS011;321;48.814;9.132;2022-09-16T10:25:33;2.20;;;2.00;;
677;SDS011;321;48.814;9.132;2022-09-16T10:28:00;1.77;;;1.20;;
677;SDS011;321;48.814;9.132;2022-09-16T10:30:30;3.00;;;1.93;;
677;SDS011;321;48.814;9.132;2022-09-16T10:33:09;3.20;;;2.00;;
677;SDS011;321;48.814;9.132;2022-09-16T10:36:06;1.80;;;1.37;;
677;SDS011;321;48.814;9.132;2022-09-16T10:38:35;5.20;;;1.53;;
677;SDS011;321;48.814;9.132;2022-09-16T10:41:06;1.93;;;1.23;;
677;SDS011;321;48.814;9.132;2022-09-16T10:43:32;1.40;;;1.27;;
677;SDS011;321;48.814;9.132;2022-09-16T10:45:58;1.43;;;1.13;;
677;SDS011;321;48.814;9.132;2022-09-16T10:48:26;4.77;;;1.83;;
677;SDS011;321;48.814;9.132;2022-09-16T10:50:58;2.10;;;1.20;;
677;SDS011;321;48.814;9.132;2022-09-16T10:53:51;2.30;;;1.43;;
677;SDS011;321;48.814;9.132;2022-09-16T10:56:16;1.50;;;1.20;;
677;SDS011;321;48.814;9.132;2022-09-16T10:58:44;1.30;;;0.90;;
677;SDS011;321;48.814;9.132;2022-09-16T11:07:28;1.70;;;1.40;;
677;SDS011;321;48.814;9.132;2022-09-16T11:10:13;1.40;;;1.23;;
677;SDS011;321;48.814;9.132;2022-09-16T11:12:59;1.33;;;1.13;;
677;SDS011;321;48.814;9.132;2022-09-16T11:18:30;1.60;;;1.20;;
677;SDS011;321;48.814;9.132;2022-09-16T11:29:02;2.50;;;1.37;;
677;SDS011;321;48.814;9.132;2022-09-16T11:31:42;1.97;;;1.77;;
677;SDS011;321;48.814;9.132;2022-09-16T11:34:13;9.33;;;1.80;;
677;SDS011;321;48.814;9.132;2022-09-16T11:53:33;1.80;;;1.23;;
677;SDS011;321;48.814;9.132;2022-09-16T11:56:17;1.20;;;1.00;;
677;SDS011;321;48.814;9.132;2022-09-16T11:58:56;2.60;;;1.27;;
677;SDS011;321;48.814;9.132;2022-09-16T12:01:55;1.80;;;1.13;;
677;SDS011;321;48.814;9.132;2022-09-16T12:04:31;2.30;;;1.17;;
677;SDS011;321;48.814;9.132;2022-09-16T12:07:12;1.30;;;1.00;;
677;SDS011;321;48.814;9.132;2022-09-16T12:09:49;1.40;;;0.80;;
677;SDS011;321;48.814;9.132;2022-09-16T12:12:21;1.20;;;0.90;;
677;SDS011;321;48.814;9.132;2022-09-16T12:14:52;2.93;;;1.57;;
677;SDS011;321;48.814;9.132;2022-09-16T12:17:28;2.90;;;1.07;;
677;SDS011;321;48.814;9.132;2022-09-16T12:20:23;2.03;;;0.90;;
677;SDS011;321;48.814;9.132;2022-09-16T12:22:53;3.23;;;0.83;;
677;SDS011;321;48.814;9.132;2022-09-16T12:25:30;1.20;;;0.90;;
677;SDS011;321;48.814;9.132;2022-09-16T12:28:01;1.10;;;0.70;;
677;SDS011;321;48.814;9.132;2022-09-16T12:30:39;1.20;;;0.80;;
677;SDS011;321;48.814;9.132;2022-09-16T12:38:20;2.63;;;1.27;;
677;SDS011;321;48.814;9.132;2022-09-16T12:52:05;3.13;;;1.10;;
677;SDS011;321;48.814;9.132;2022-09-16T12:54:53;1.57;;;0.90;;
677;SDS011;321;48.814;9.132;2022-09-16T13:00:20;1.30;;;0.80;;
677;SDS011;321;48.814;9.132;2022-09-16T13:02:57;4.50;;;1.10;;
677;SDS011;321;48.814;9.132;2022-09-16T13:05:29;1.63;;;1.13;;
677;SDS011;321;48.814;9.132;2022-09-16T13:08:03;1.43;;;0.93;;
677;SDS011;321;48.814;9.132;2022-09-16T13:10:33;3.63;;;0.93;;
677;SDS011;321;48.814;9.132;2022-09-16T13:13:00;1.87;;;1.47;;
677;SDS011;321;48.814;9.132;2022-09-16T13:15:29;1.40;;;0.80;;
677;SDS011;321;48.814;9.132;2022-09-16T13:18:07;1.30;;;1.03;;
677;SDS011;321;48.814;9.132;2022-09-16T13:20:49;1.83;;;1.63;;
677;SDS011;321;48.814;9.132;2022-09-16T13:23:23;4.83;;;1.17;;
677;SDS011;321;48.814;9.132;2022-09-16T13:25:58;2.37;;;1.40;;
677;SDS011;321;48.814;9.132;2022-09-16T13:33:37;2.03;;;1.13;;
677;SDS011;321;48.814;9.132;2022-09-16T13:36:11;1.00;;;0.50;;
677;SDS011;321;48.814;9.132;2022-09-16T13:38:44;1.50;;;0.90;;
677;SDS011;321;48.814;9.132;2022-09-16T13:41:13;2.10;;;1.47;;
677;SDS011;321;48.814;9.132;2022-09-16T13:49:35;1.40;;;0.80;;
677;SDS011;321;48.814;9.132;2022-09-16T13:52:09;1.37;;;0.60;;
677;SDS011;321;48.814;9.132;2022-09-16T13:54:46;5.67;;;1.30;;
677;SDS011;321;48.814;9.132;2022-09-16T14:05:49;1.37;;;0.97;;
677;SDS011;321;48.814;9.132;2022-09-16T14:13:19;1.20;;;0.90;;
677;SDS011;321;48.814;9.132;2022-09-16T14:15:53;1.73;;;1.10;;
677;SDS011;321;48.814;9.132;2022-09-16T14:18:22;1.40;;;1.17;;
677;SDS011;321;48.814;9.132;2022-09-16T14:20:55;1.10;;;0.60;;
677;SDS011;321;48.814;9.132;2022-09-16T14:23:32;1.80;;;1.10;;
677;SDS011;321;48.814;9.132;2022-09-16T14:26:10;2.43;;;1.17;;
677;SDS011;321;48.814;9.132;2022-09-16T14:28:46;1.27;;;0.60;;
677;SDS011;321;48.814;9.132;2022-09-16T14:31:28;1.60;;;1.13;;
677;SDS011;321;48.814;9.132;2022-09-16T14:33:56;1.00;;;0.50;;
677;SDS011;321;48.814;9.132;2022-09-16T14:36:27;4.40;;;1.03;;
677;SDS011;321;48.814;9.132;2022-09-16T14:38:56;1.80;;;1.00;;
677;SDS011;321;48.814;9.132;2022-09-16T14:41:24;2.60;;;1.00;;
677;SDS011;321;48.814;9.132;2022-09-16T14:44:06;1.20;;;0.70;;
677;SDS011;321;48.814;9.132;2022-09-16T14:46:37;1.10;;;0.80;;
677;SDS011;321;48.814;9.132;2022-09-16T14:49:07;1.50;;;1.10;;
677;SDS011;321;48.814;9.132;2022-09-16T14:51:35;1.40;;;1.00;;
677;SDS011;321;48.814;9.132;2022-09-16T14:54:03;10.53;;;1.23;;
677;SDS011;321;48.814;9.132;2022-09-16T14:56:28;1.67;;;1.03;;
677;SDS011;321;48.814;9.132;2022-09-16T14:58:54;1.47;;;1.20;;
677;SDS011;321;48.814;9.132;2022-09-16T15:01:24;6.00;;;1.30;;
677;SDS011;321;48.814;9.132;2022-09-16T15:03:58;1.20;;;0.77;;
677;SDS011;321;48.814;9.132;2022-09-16T15:06:38;1.10;;;0.80;;
677;SDS011;321;48.814;9.132;2022-09-16T15:09:17;1.03;;;0.70;;
677;SDS011;321;48.814;9.132;2022-09-16T15:11:54;1.53;;;0.83;;
677;SDS011;321;48.814;9.132;2022-09-16T15:14:21;2.33;;;1.17;;
677;SDS011;321;48.814;9.132;2022-09-16T15:16:52;3.30;;;1.03;;
677;SDS011;321;48.814;9.132;2022-09-16T15:19:22;1.50;;;0.97;;
677;SDS011;321;48.814;9.132;2022-09-16T15:21:51;1.77;;;0.90;;
677;SDS011;321;48.814;9.132;2022-09-16T15:24:22;1.70;;;0.93;;
677;SDS011;321;48.814;9.132;2022-09-16T15:26:52;5.40;;;1.60;;
677;SDS011;321;48.814;9.132;2022-09-16T15:31:45;4.93;;;1.37;;
677;SDS011;321;48.814;9.132;2022-09-16T15:36:46;1.83;;;1.00;;
677;SDS011;321;48.814;9.132;2022-09-16T15:39:27;1.20;;;0.97;;
677;SDS011;321;48.814;9.132;2022-09-16T15:42:10;1.43;;;0.83;;
677;SDS011;321;48.814;9.132;2022-09-16T15:44:37;1.37;;;0.83;;
677;SDS011;321;48.814;9.132;2022-09-16T15:47:28;1.50;;;0.80;;
677;SDS011;321;48.814;9.132;2022-09-16T15:49:59;1.87;;;1.23;;
677;SDS011;321;48.814;9.132;2022-09-16T15:52:34;1.17;;;0.60;;
677;SDS011;321;48.814;9.132;2022-09-16T15:58:21;1.63;;;1.00;;
677;SDS011;321;48.814;9.132;2022-09-16T16:01:10;2.60;;;0.80;;
677;SDS011;321;48.814;9.132;2022-09-16T16:03:55;1.60;;;1.00;;
677;SDS011;321;48.814;9.132;2022-09-16T16:11:56;1.40;;;0.80;;
677;SDS011;321;48.814;9.132;2022-09-16T16:14:24;1.10;;;0.63;;
677;SDS011;321;48.814;9.132;2022-09-16T16:16:54;2.90;;;1.17;;
677;SDS011;321;48.814;9.132;2022-09-16T16:19:20;2.20;;;1.17;;
677;SDS011;321;48.814;9.132;2022-09-16T16:21:47;1.50;;;1.30;;
677;SDS011;321;48.814;9.132;2022-09-16T16:24:12;1.53;;;0.87;;
677;SDS011;321;48.814;9.132;2022-09-16T16:26:41;1.83;;;1.13;;
677;SDS011;321;48.814;9.132;2022-09-16T16:29:07;1.60;;;1.17;;
677;SDS011;321;48.814;9.132;2022-09-16T16:31:33;1.70;;;1.10;;
677;SDS011;321;48.814;9.132;2022-09-16T16:34:00;1.30;;;1.00;;
677;SDS011;321;48.814;9.132;2022-09-16T16:36:27;1.10;;;0.70;;
677;SDS011;321;48.814;9.132;2022-09-16T16:38:52;1.10;;;0.90;;
677;SDS011;321;48.814;9.132;2022-09-16T16:41:18;2.40;;;1.43;;
677;SDS011;321;48.814;9.132;2022-09-16T16:43:45;1.37;;;1.00;;
677;SDS011;321;48.814;9.132;2022-09-16T16:46:10;1.87;;;1.17;;
677;SDS011;321;48.814;9.132;2022-09-16T16:48:39;2.00;;;1.00;;
677;SDS011;321;48.814;9.132;2022-09-16T16:51:05;1.23;;;0.60;;
677;SDS011;321;48.814;9.132;2022-09-16T16:53:35;1.83;;;0.90;;
677;SDS011;321;48.814;9.132;2022-09-16T16:56:02;1.20;;;0.67;;
677;SDS011;321;48.814;9.132;2022-09-16T16:58:32;1.10;;;0.70;;
677;SDS011;321;48.814;9.132;2022-09-16T17:01:07;1.13;;;0.63;;
677;SDS011;321;48.814;9.132;2022-09-16T17:03:36;2.17;;;1.03;;
677;SDS011;321;48.814;9.132;2022-09-16T17:06:02;1.30;;;0.83;;
677;SDS011;321;48.814;9.132;2022-09-16T17:08:29;1.10;;;0.63;;
677;SDS011;321;48.814;9.132;2022-09-16T17:11:15;1.40;;;0.80;;
677;SDS011;321;48.814;9.132;2022-09-16T17:13:45;1.13;;;0.87;;
677;SDS011;321;48.814;9.132;2022-09-16T17:16:13;2.17;;;0.70;;
677;SDS011;321;48.814;9.132;2022-09-16T17:18:42;1.50;;;0.80;;
677;SDS011;321;48.814;9.132;2022-09-16T17:21:12;1.43;;;0.90;;
677;SDS011;321;48.814;9.132;2022-09-16T17:23:39;1.20;;;0.77;;
677;SDS011;321;48.814;9.132;2022-09-16T17:26:05;0.90;;;0.40;;
677;SDS011;321;48.814;9.132;2022-09-16T17:28:35;1.70;;;0.90;;
677;SDS011;321;48.814;9.132;2022-09-16T17:31:09;1.37;;;0.73;;
677;SDS011;321;48.814;9.132;2022-09-16T17:33:37;1.10;;;0.50;;
677;SDS011;321;48.814;9.132;2022-09-16T17:36:03;1.53;;;0.60;;
677;SDS011;321;48.814;9.132;2022-09-16T17:38:30;3.40;;;1.10;;
677;SDS011;321;48.814;9.132;2022-09-16T17:41:04;3.83;;;0.60;;
677;SDS011;321;48.814;9.132;2022-09-16T17:43:41;2.10;;;0.60;;
677;SDS011;321;48.814;9.132;2022-09-16T17:46:11;1.27;;;0.83;;
677;SDS011;321;48.814;9.132;2022-09-16T17:48:39;1.17;;;0.97;;
677;SDS011;321;48.814;9.132;2022-09-16T17:51:06;5.87;;;1.20;;
677;SDS011;321;48.814;9.132;2022-09-16T17:53:32;1.50;;;1.10;;
677;SDS011;321;48.814;9.132;2022-09-16T17:56:02;2.40;;;0.90;;
677;SDS011;321;48.814;9.132;2022-09-16T17:58:29;1.67;;;1.07;;
677;SDS011;321;48.814;9.132;2022-09-16T18:01:01;1.50;;;0.83;;
677;SDS011;321;48.814;9.132;2022-09-16T18:03:30;2.60;;;1.10;;
677;SDS011;321;48.814;9.132;2022-09-16T18:06:01;1.20;;;0.70;;
677;SDS011;321;48.814;9.132;2022-09-16T18:08:28;1.37;;;0.70;;
677;SDS011;321;48.814;9.132;2022-09-16T18:10:53;1.30;;;1.10;;
677;SDS011;321;48.814;9.132;2022-09-16T18:13:19;1.20;;;1.00;;
677;SDS011;321;48.814;9.132;2022-09-16T18:15:44;1.40;;;0.90;;
677;SDS011;321;48.814;9.132;2022-09-16T18:18:10;1.80;;;1.00;;
677;SDS011;321;48.814;9.132;2022-09-16T18:20:35;1.50;;;0.63;;
677;SDS011;321;48.814;9.132;2022-09-16T18:23:01;1.20;;;0.80;;
677;SDS011;321;48.814;9.132;2022-09-16T18:25:26;1.33;;;0.70;;
677;SDS011;321;48.814;9.132;2022-09-16T18:27:52;1.37;;;1.00;;
677;SDS011;321;48.814;9.132;2022-09-16T18:30:18;1.10;;;0.80;;
677;SDS011;321;48.814;9.132;2022-09-16T18:32:44;1.83;;;0.90;;
677;SDS011;321;48.814;9.132;2022-09-16T18:35:09;1.10;;;0.60;;
677;SDS011;321;48.814;9.132;2022-09-16T18:37:36;5.43;;;0.90;;
677;SDS011;321;48.814;9.132;2022-09-16T18:40:02;1.00;;;0.60;;
677;SDS011;321;48.814;9.132;2022-09-16T18:42:27;2.47;;;1.07;;
677;SDS011;321;48.814;9.132;2022-09-16T18:44:54;2.40;;;1.10;;
677;SDS011;321;48.814;9.132;2022-09-16T18:47:19;1.10;;;0.87;;
677;SDS011;321;48.814;9.132;2022-09-16T18:49:45;1.23;;;0.90;;
677;SDS011;321;48.814;9.132;2022-09-16T18:52:10;1.20;;;0.70;;
677;SDS011;321;48.814;9.132;2022-09-16T18:54:36;1.17;;;0.70;;